createdAt,value
2023-09-05T00:02:07.015Z,99118.53
2023-09-05T00:04:35.688Z,99100.81
2023-09-05T00:07:03.580Z,99101.06
2023-09-05T00:09:31.786Z,99098.19
2023-09-05T00:12:02.424Z,99094.72
2023-09-05T00:14:30.877Z,99095.22
2023-09-05T00:16:58.816Z,99093.78
2023-09-05T00:19:26.917Z,99087.50
2023-09-05T00:21:55.170Z,99085.16
2023-09-05T00:24:32.681Z,99089.50
2023-09-05T00:27:03.975Z,99096.09
2023-09-05T00:29:32.413Z,99095.38
2023-09-05T00:32:01.127Z,99092.31
2023-09-05T00:34:29.547Z,99092.16
2023-09-05T00:36:59.362Z,99098.41
2023-09-05T00:39:27.910Z,99090.03
2023-09-05T00:41:56.821Z,99089.50
2023-09-05T00:44:26.376Z,99091.06
2023-09-05T00:46:56.390Z,99091.97
2023-09-05T00:49:28.843Z,99088.91
2023-09-05T00:51:59.718Z,99091.44
2023-09-05T00:54:28.227Z,99089.03
2023-09-05T00:56:56.502Z,99087.22
2023-09-05T00:59:24.436Z,99090.16
2023-09-05T01:01:57.820Z,99090.53
2023-09-05T01:04:25.826Z,99089.81
2023-09-05T01:06:58.739Z,99092.06
2023-09-05T01:09:37.722Z,99091.44
2023-09-05T01:12:07.500Z,99087.63
2023-09-05T01:14:35.971Z,99094.41
2023-09-05T01:17:06.646Z,99099.72
2023-09-05T01:19:37.076Z,99099.63
2023-09-05T01:22:21.035Z,99092.97
2023-09-05T01:24:52.151Z,99095.97
2023-09-05T01:27:23.734Z,99096.94
2023-09-05T01:29:52.806Z,99096.28
2023-09-05T01:32:24.739Z,99096.63
2023-09-05T01:34:52.773Z,99101.56
2023-09-05T01:37:20.891Z,99103.81
2023-09-05T01:39:49.197Z,99098.38
2023-09-05T01:42:18.642Z,99087.38
2023-09-05T01:44:46.718Z,99082.09
2023-09-05T01:47:14.683Z,99087.00
2023-09-05T01:49:42.498Z,99078.88
2023-09-05T01:52:12.938Z,99085.19
2023-09-05T01:54:42.495Z,99085.38
2023-09-05T01:57:10.510Z,99075.66
2023-09-05T01:59:39.884Z,99079.09
2023-09-05T02:02:08.054Z,99074.94
2023-09-05T02:04:36.480Z,99074.13
2023-09-05T02:07:05.298Z,99067.41
2023-09-05T02:09:36.382Z,99072.16
2023-09-05T02:12:07.227Z,99065.72
2023-09-05T02:14:36.426Z,99084.03
2023-09-05T02:17:06.180Z,99075.31
2023-09-05T02:19:34.214Z,99071.78
2023-09-05T02:22:03.621Z,99066.75
2023-09-05T02:24:31.606Z,99062.53
2023-09-05T02:26:59.592Z,99062.22
2023-09-05T02:29:29.336Z,99070.16
2023-09-05T02:31:57.250Z,99064.44
2023-09-05T02:34:26.456Z,99077.69
2023-09-05T02:36:56.020Z,99069.78
2023-09-05T02:39:24.110Z,99073.59
2023-09-05T02:41:52.086Z,99071.97
2023-09-05T02:44:20.107Z,99074.44
2023-09-05T02:46:49.487Z,99074.03
2023-09-05T02:49:17.572Z,99081.25
2023-09-05T02:51:47.224Z,99082.44
2023-09-05T02:54:15.219Z,99084.56
2023-09-05T02:56:43.279Z,99094.22
2023-09-05T02:59:11.188Z,99096.34
2023-09-05T03:01:39.129Z,99090.78
2023-09-05T03:04:07.486Z,99092.63
2023-09-05T03:06:39.042Z,99095.75
2023-09-05T03:09:10.672Z,99100.22
2023-09-05T03:11:40.646Z,99096.75
2023-09-05T03:14:09.365Z,99101.38
2023-09-05T03:16:38.574Z,99100.97
2023-09-05T03:19:06.807Z,99090.31
2023-09-05T03:21:34.714Z,99093.97
2023-09-05T03:24:05.868Z,99090.03
2023-09-05T03:26:35.477Z,99088.09
2023-09-05T03:29:03.579Z,99086.81
2023-09-05T03:31:31.869Z,99087.09
2023-09-05T03:34:00.096Z,99092.06
2023-09-05T03:36:30.462Z,99090.56
2023-09-05T03:38:58.378Z,99085.16
2023-09-05T03:41:26.713Z,99090.72
2023-09-05T03:43:56.103Z,99081.38
2023-09-05T03:46:24.370Z,99079.59
2023-09-05T03:48:54.272Z,99080.41
2023-09-05T03:51:21.338Z,99077.94
2023-09-05T03:53:50.794Z,99079.16
2023-09-05T03:56:19.021Z,99071.50
2023-09-05T03:58:47.139Z,99072.94
2023-09-05T04:01:17.169Z,99065.16
2023-09-05T04:03:46.818Z,99060.56
2023-09-05T04:06:15.074Z,99068.78
2023-09-05T04:08:43.011Z,99070.28
2023-09-05T04:11:10.858Z,99063.81
2023-09-05T04:13:38.924Z,99073.19
2023-09-05T04:16:07.627Z,99068.78
2023-09-05T04:18:36.857Z,99061.53
2023-09-05T04:21:05.266Z,99075.50
2023-09-05T04:23:33.638Z,99064.63
2023-09-05T04:26:03.362Z,99063.19
2023-09-05T04:28:32.557Z,99067.91
2023-09-05T04:31:04.573Z,99071.34
2023-09-05T04:33:38.780Z,99070.84
2023-09-05T04:36:11.134Z,99069.53
2023-09-05T04:38:41.332Z,99064.50
2023-09-05T04:41:10.146Z,99075.03
2023-09-05T04:43:38.628Z,99068.22
2023-09-05T04:46:11.544Z,99065.31
2023-09-05T04:48:40.781Z,99074.94
2023-09-05T04:51:11.553Z,99073.13
2023-09-05T04:53:41.124Z,99071.09
2023-09-05T04:56:09.211Z,99070.28
2023-09-05T04:58:38.969Z,99068.22
2023-09-05T05:01:09.014Z,99074.56
2023-09-05T05:03:39.887Z,99071.88
2023-09-05T05:06:12.968Z,99081.09
2023-09-05T05:08:42.578Z,99080.84
2023-09-05T05:11:10.793Z,99080.88
2023-09-05T05:13:40.057Z,99079.91
2023-09-05T05:16:09.876Z,99092.06
2023-09-05T05:18:39.804Z,99083.47
2023-09-05T05:21:07.654Z,99094.53
2023-09-05T05:23:40.871Z,99100.97
2023-09-05T05:26:09.652Z,99095.16
2023-09-05T05:28:43.193Z,99095.22
2023-09-05T05:31:15.707Z,99090.81
2023-09-05T05:33:44.472Z,99086.19
2023-09-05T05:36:15.377Z,99099.69
2023-09-05T05:38:45.921Z,99094.09
2023-09-05T05:41:15.828Z,99097.13
2023-09-05T05:43:45.038Z,99096.28
2023-09-05T05:46:15.821Z,99093.34
2023-09-05T05:48:44.082Z,99100.41
2023-09-05T05:51:12.877Z,99094.63
2023-09-05T05:53:43.483Z,99104.75
2023-09-05T05:56:16.882Z,99104.84
2023-09-05T05:58:45.698Z,99105.50
2023-09-05T06:01:15.678Z,99097.06
2023-09-05T06:03:45.725Z,99097.84
2023-09-05T06:06:14.038Z,99095.94
2023-09-05T06:08:44.342Z,99103.75
2023-09-05T06:11:12.864Z,99105.63
2023-09-05T06:13:42.066Z,99102.53
2023-09-05T06:16:12.448Z,99103.25
2023-09-05T06:18:43.033Z,99106.00
2023-09-05T06:21:11.359Z,99109.72
2023-09-05T06:23:39.276Z,99104.84
2023-09-05T06:26:07.877Z,99103.19
2023-09-05T06:28:37.273Z,99113.22
2023-09-05T06:31:10.945Z,99107.94
2023-09-05T06:33:39.894Z,99116.94
2023-09-05T06:36:09.033Z,99112.41
2023-09-05T06:38:37.911Z,99107.41
2023-09-05T06:41:09.454Z,99106.00
2023-09-05T06:43:38.516Z,99112.72
2023-09-05T06:46:10.690Z,99110.84
2023-09-05T06:48:41.337Z,99103.56
2023-09-05T06:51:09.393Z,99104.91
2023-09-05T06:53:39.271Z,99103.03
2023-09-05T06:56:09.882Z,99106.94
2023-09-05T06:58:37.787Z,99116.16
2023-09-05T07:01:09.870Z,99108.31
2023-09-05T07:03:39.870Z,99118.13
2023-09-05T07:06:08.408Z,99114.41
2023-09-05T07:08:36.515Z,99122.50
2023-09-05T07:11:06.411Z,99123.00
2023-09-05T07:13:34.645Z,99118.31
2023-09-05T07:16:02.532Z,99120.34
2023-09-05T07:18:31.827Z,99114.91
2023-09-05T07:21:02.504Z,99129.38
2023-09-05T07:23:31.045Z,99128.78
2023-09-05T07:26:05.470Z,99107.03
2023-09-05T07:28:33.777Z,99109.44
2023-09-05T07:31:04.378Z,99102.84
2023-09-05T07:33:38.904Z,99106.41
2023-09-05T07:36:08.208Z,99107.38
2023-09-05T07:38:36.364Z,99101.84
2023-09-05T07:41:05.425Z,99104.66
2023-09-05T07:43:37.073Z,99105.66
2023-09-05T07:46:05.694Z,99112.63
2023-09-05T07:48:33.620Z,99109.94
2023-09-05T07:51:07.416Z,99097.59
2023-09-05T07:53:38.826Z,99103.75
2023-09-05T07:56:08.727Z,99098.34
2023-09-05T07:58:37.707Z,99096.88
2023-09-05T08:01:12.375Z,99090.03
2023-09-05T08:03:43.490Z,99090.56
2023-09-05T08:06:17.167Z,99093.56
2023-09-05T08:08:46.782Z,99098.31
2023-09-05T08:11:15.060Z,99094.56
2023-09-05T08:13:45.305Z,99092.41
2023-09-05T08:16:15.560Z,99100.47
2023-09-05T08:18:46.089Z,99098.84
2023-09-05T08:21:22.475Z,99091.28
2023-09-05T08:23:51.775Z,99093.81
2023-09-05T08:26:24.279Z,99094.91
2023-09-05T08:28:53.750Z,99093.78
2023-09-05T08:31:25.828Z,99092.31
2023-09-05T08:33:57.243Z,99088.28
2023-09-05T08:36:26.892Z,99091.56
2023-09-05T08:39:05.061Z,99085.56
2023-09-05T08:41:34.953Z,99088.94
2023-09-05T08:44:06.738Z,99083.97
2023-09-05T08:46:37.973Z,99085.94
2023-09-05T08:49:11.533Z,99087.00
2023-09-05T08:51:46.676Z,99082.75
2023-09-05T08:54:20.614Z,99081.44
2023-09-05T08:56:50.323Z,99082.69
2023-09-05T08:59:23.262Z,99090.72
2023-09-05T09:01:53.471Z,99084.28
2023-09-05T09:04:23.248Z,99079.91
2023-09-05T09:07:02.444Z,99083.84
2023-09-05T09:09:37.531Z,99069.78
2023-09-05T09:12:07.297Z,99071.06
2023-09-05T09:14:35.426Z,99071.66
2023-09-05T09:17:06.057Z,99074.09
2023-09-05T09:19:37.203Z,99074.50
2023-09-05T09:22:09.926Z,99081.09
2023-09-05T09:24:40.486Z,99081.63
2023-09-05T09:27:12.289Z,99087.81
2023-09-05T09:29:43.906Z,99072.84
2023-09-05T09:32:15.231Z,99076.88
2023-09-05T09:34:47.340Z,99078.59
2023-09-05T09:37:27.209Z,99082.34
2023-09-05T09:40:00.020Z,99081.19
2023-09-05T09:42:28.357Z,99073.59
2023-09-05T09:45:00.902Z,99068.41
2023-09-05T09:47:34.218Z,99070.06
2023-09-05T09:50:04.889Z,99062.00
2023-09-05T09:52:40.849Z,99067.72
2023-09-05T09:55:13.710Z,99059.84
2023-09-05T09:57:49.060Z,99051.25
2023-09-05T10:00:20.391Z,99044.31
2023-09-05T10:02:53.737Z,99049.75
2023-09-05T10:05:26.715Z,99049.94
2023-09-05T10:07:59.121Z,99038.16
2023-09-05T10:10:28.273Z,99050.88
2023-09-05T10:13:00.582Z,99035.00
2023-09-05T10:15:33.497Z,99038.88
2023-09-05T10:18:05.504Z,99041.91
2023-09-05T10:20:37.459Z,99034.34
2023-09-05T10:23:12.181Z,99033.66
2023-09-05T10:25:41.953Z,99034.72
2023-09-05T10:28:12.930Z,99032.19
2023-09-05T10:30:45.510Z,99040.53
2023-09-05T10:33:15.866Z,99039.53
2023-09-05T10:35:46.908Z,99041.16
2023-09-05T10:38:21.158Z,99037.50
2023-09-05T10:40:51.487Z,99031.09
2023-09-05T10:43:22.421Z,99032.81
2023-09-05T10:45:58.789Z,99028.91
2023-09-05T10:48:36.893Z,99019.41
2023-09-05T10:51:11.802Z,99023.50
2023-09-05T10:53:42.949Z,99011.03
2023-09-05T10:56:42.166Z,99006.91
2023-09-05T10:59:13.685Z,99012.81
2023-09-05T11:01:55.131Z,99015.28
2023-09-05T11:04:27.893Z,99010.22
2023-09-05T11:07:03.851Z,99013.06
2023-09-05T11:09:49.398Z,99018.13
2023-09-05T11:12:20.250Z,99010.47
2023-09-05T11:14:52.675Z,99004.44
2023-09-05T11:17:21.267Z,99010.53
2023-09-05T11:19:52.218Z,99020.53
2023-09-05T11:22:24.390Z,99011.78
2023-09-05T11:24:59.177Z,99011.78
2023-09-05T11:27:33.759Z,99011.13
2023-09-05T11:30:03.189Z,99004.63
2023-09-05T11:32:33.295Z,98993.97
2023-09-05T11:35:02.439Z,98998.91
2023-09-05T11:37:31.364Z,99001.38
2023-09-05T11:40:14.557Z,99000.31
2023-09-05T11:42:45.633Z,98991.88
2023-09-05T11:45:19.701Z,98985.41
2023-09-05T11:47:49.368Z,98983.91
2023-09-05T11:50:20.854Z,98986.03
2023-09-05T11:52:53.864Z,98980.94
2023-09-05T11:55:28.668Z,98987.84
2023-09-05T11:58:00.147Z,98985.84
2023-09-05T12:00:30.667Z,98976.63
2023-09-05T12:03:01.427Z,98978.19
2023-09-05T12:05:38.577Z,98970.53
2023-09-05T12:08:18.679Z,98976.88
2023-09-05T12:11:01.601Z,98976.03
2023-09-05T12:13:40.083Z,98971.66
2023-09-05T12:16:08.630Z,98967.72
2023-09-05T12:18:36.524Z,98967.63
2023-09-05T12:21:04.548Z,98968.00
2023-09-05T12:23:32.972Z,98959.53
2023-09-05T12:26:04.902Z,98956.78
2023-09-05T12:28:33.984Z,98959.22
2023-09-05T12:31:12.008Z,98955.97
2023-09-05T12:33:40.717Z,98950.94
2023-09-05T12:36:10.270Z,98948.88
2023-09-05T12:38:39.222Z,98938.91
2023-09-05T12:41:09.558Z,98941.94
2023-09-05T12:43:37.913Z,98936.38
2023-09-05T12:46:07.010Z,98932.03
2023-09-05T12:48:36.766Z,98936.28
2023-09-05T12:51:06.433Z,98914.28
2023-09-05T12:53:37.834Z,98928.63
2023-09-05T12:56:10.450Z,98915.59
2023-09-05T12:58:38.798Z,98921.41
2023-09-05T13:01:08.281Z,98911.34
2023-09-05T13:03:38.779Z,98916.63
2023-09-05T13:06:08.756Z,98907.50
2023-09-05T13:08:38.133Z,98901.63
2023-09-05T13:11:06.188Z,98896.81
2023-09-05T13:13:36.720Z,98886.34
2023-09-05T13:16:07.016Z,98898.06
2023-09-05T13:18:37.066Z,98889.28
2023-09-05T13:21:07.126Z,98882.91
2023-09-05T13:23:36.764Z,98888.47
2023-09-05T13:26:07.834Z,98879.84
2023-09-05T13:28:41.052Z,98880.69
2023-09-05T13:31:11.036Z,98872.53
2023-09-05T13:33:41.575Z,98874.22
2023-09-05T13:36:10.229Z,98878.44
2023-09-05T13:38:40.707Z,98867.47
2023-09-05T13:41:09.927Z,98870.91
2023-09-05T13:43:39.277Z,98872.59
2023-09-05T13:46:14.043Z,98865.72
2023-09-05T13:48:42.889Z,98866.81
2023-09-05T13:51:12.534Z,98860.97
2023-09-05T13:53:43.019Z,98861.28
2023-09-05T13:56:13.729Z,98859.88
2023-09-05T13:58:43.553Z,98857.47
2023-09-05T14:01:14.262Z,98859.47
2023-09-05T14:03:42.255Z,98851.81
2023-09-05T14:06:14.446Z,98848.22
2023-09-05T14:08:44.601Z,98851.44
2023-09-05T14:11:13.754Z,98854.06
2023-09-05T14:13:46.705Z,98847.03
2023-09-05T14:16:20.023Z,98846.00
2023-09-05T14:18:50.616Z,98845.25
2023-09-05T14:21:25.650Z,98836.47
2023-09-05T14:23:54.237Z,98837.31
2023-09-05T14:26:22.054Z,98827.94
2023-09-05T14:28:51.296Z,98823.94
2023-09-05T14:31:23.142Z,98829.03
2023-09-05T14:33:51.509Z,98819.16
2023-09-05T14:36:19.656Z,98828.06
2023-09-05T14:38:50.899Z,98828.97
2023-09-05T14:41:18.802Z,98814.19
2023-09-05T14:43:47.705Z,98823.25
2023-09-05T14:46:19.938Z,98824.03
2023-09-05T14:48:51.409Z,98830.50
2023-09-05T14:51:19.494Z,98824.44
2023-09-05T14:53:48.576Z,98829.97
2023-09-05T14:56:20.151Z,98824.66
2023-09-05T14:58:49.229Z,98817.50
2023-09-05T15:01:21.215Z,98817.88
2023-09-05T15:03:49.924Z,98820.78
2023-09-05T15:06:18.148Z,98819.59
2023-09-05T15:08:49.428Z,98814.09
2023-09-05T15:11:17.606Z,98813.63
2023-09-05T15:13:47.857Z,98813.00
2023-09-05T15:16:17.251Z,98812.03
2023-09-05T15:18:47.161Z,98820.00
2023-09-05T15:21:16.931Z,98820.25
2023-09-05T15:23:47.052Z,98816.06
2023-09-05T15:26:17.453Z,98823.44
2023-09-05T15:28:47.061Z,98817.53
2023-09-05T15:31:17.410Z,98818.28
2023-09-05T15:33:49.790Z,98814.69
2023-09-05T15:36:21.282Z,98822.47
2023-09-05T15:38:52.522Z,98822.16
2023-09-05T15:41:23.642Z,98825.47
2023-09-05T15:43:53.005Z,98807.53
2023-09-05T15:46:21.488Z,98809.50
2023-09-05T15:48:53.312Z,98811.19
2023-09-05T15:51:24.120Z,98812.25
2023-09-05T15:53:52.489Z,98805.84
2023-09-05T15:56:21.228Z,98800.91
2023-09-05T15:58:50.901Z,98814.63
2023-09-05T16:01:19.374Z,98811.03
2023-09-05T16:03:49.681Z,98816.16
2023-09-05T16:06:22.298Z,98814.50
2023-09-05T16:08:51.402Z,98819.00
2023-09-05T16:11:21.613Z,98808.00
2023-09-05T16:13:50.976Z,98809.22
2023-09-05T16:16:21.865Z,98806.97
2023-09-05T16:18:53.093Z,98817.94
2023-09-05T16:21:25.625Z,98819.00
2023-09-05T16:23:55.023Z,98826.28
2023-09-05T16:26:24.261Z,98831.41
2023-09-05T16:28:53.557Z,98830.53
2023-09-05T16:31:22.509Z,98835.19
2023-09-05T16:33:54.974Z,98832.59
2023-09-05T16:36:25.716Z,98831.72
2023-09-05T16:38:57.150Z,98828.72
2023-09-05T16:41:31.913Z,98827.25
2023-09-05T16:44:02.234Z,98830.94
2023-09-05T16:46:32.556Z,98838.53
2023-09-05T16:49:02.362Z,98839.88
2023-09-05T16:51:36.071Z,98836.72
2023-09-05T16:54:08.626Z,98845.38
2023-09-05T16:56:38.117Z,98840.19
2023-09-05T16:59:07.467Z,98844.75
2023-09-05T17:01:35.559Z,98847.25
2023-09-05T17:04:03.586Z,98846.97
2023-09-05T17:06:35.548Z,98849.13
2023-09-05T17:09:06.405Z,98850.00
2023-09-05T17:11:37.299Z,98857.63
2023-09-05T17:14:05.573Z,98860.41
2023-09-05T17:16:33.545Z,98859.50
2023-09-05T17:19:02.225Z,98854.38
2023-09-05T17:21:31.972Z,98852.47
2023-09-05T17:24:03.105Z,98851.84
2023-09-05T17:26:32.834Z,98858.31
2023-09-05T17:29:02.434Z,98859.00
2023-09-05T17:31:32.368Z,98856.53
2023-09-05T17:34:02.849Z,98864.00
2023-09-05T17:36:33.414Z,98865.50
2023-09-05T17:39:03.468Z,98866.66
2023-09-05T17:41:33.863Z,98867.47
2023-09-05T17:44:03.673Z,98873.06
2023-09-05T17:46:33.484Z,98880.09
2023-09-05T17:49:02.559Z,98880.09
2023-09-05T17:51:33.371Z,98877.75
2023-09-05T17:54:02.878Z,98874.75
2023-09-05T17:56:33.075Z,98884.50
2023-09-05T17:59:02.867Z,98876.72
2023-09-05T18:01:31.824Z,98885.78
2023-09-05T18:04:00.925Z,98889.59
2023-09-05T18:06:29.965Z,98900.34
2023-09-05T18:09:01.975Z,98901.88
2023-09-05T18:11:30.765Z,98904.28
2023-09-05T18:14:01.600Z,98911.94
2023-09-05T18:16:29.936Z,98905.97
2023-09-05T18:18:58.534Z,98909.56
2023-09-05T18:21:29.368Z,98919.94
2023-09-05T18:23:57.928Z,98925.72
2023-09-05T18:26:30.650Z,98930.84
2023-09-05T18:28:58.969Z,98922.69
2023-09-05T18:31:27.561Z,98917.25
2023-09-05T18:33:56.033Z,98918.31
2023-09-05T18:36:24.581Z,98926.16
2023-09-05T18:38:59.617Z,98926.34
2023-09-05T18:41:29.808Z,98928.06
2023-09-05T18:43:58.885Z,98925.78
2023-09-05T18:46:27.829Z,98924.44
2023-09-05T18:49:03.801Z,98923.31
2023-09-05T18:51:36.966Z,98930.41
2023-09-05T18:54:06.319Z,98930.31
2023-09-05T18:56:36.280Z,98926.88
2023-09-05T18:59:06.357Z,98932.47
2023-09-05T19:01:35.697Z,98933.72
2023-09-05T19:04:04.593Z,98932.59
2023-09-05T19:06:32.892Z,98926.75
2023-09-05T19:09:05.582Z,98929.34
2023-09-05T19:11:35.635Z,98928.50
2023-09-05T19:14:04.943Z,98934.84
2023-09-05T19:16:33.862Z,98929.75
2023-09-05T19:19:02.483Z,98935.38
2023-09-05T19:21:31.074Z,98935.66
2023-09-05T19:23:59.222Z,98935.94
2023-09-05T19:26:27.495Z,98936.75
2023-09-05T19:28:56.806Z,98943.81
2023-09-05T19:31:26.072Z,98945.06
2023-09-05T19:33:54.997Z,98941.88
2023-09-05T19:36:23.185Z,98941.91
2023-09-05T19:38:51.245Z,98940.09
2023-09-05T19:41:19.938Z,98946.75
2023-09-05T19:43:50.007Z,98948.00
2023-09-05T19:46:21.399Z,98956.56
2023-09-05T19:48:49.623Z,98948.41
2023-09-05T19:51:17.815Z,98946.97
2023-09-05T19:53:45.804Z,98957.69
2023-09-05T19:56:15.061Z,98954.97
2023-09-05T19:58:43.035Z,98954.50
2023-09-05T20:01:11.193Z,98956.25
2023-09-05T20:03:41.400Z,98956.13
2023-09-05T20:06:09.895Z,98961.00
2023-09-05T20:08:39.100Z,98960.00
2023-09-05T20:11:09.389Z,98962.47
2023-09-05T20:13:37.359Z,98964.59
2023-09-05T20:16:06.033Z,98961.97
2023-09-05T20:18:34.178Z,98973.91
2023-09-05T20:21:04.510Z,98966.16
2023-09-05T20:23:32.390Z,98968.22
2023-09-05T20:26:02.719Z,98967.94
2023-09-05T20:28:32.335Z,98962.59
2023-09-05T20:31:01.620Z,98976.03
2023-09-05T20:33:29.825Z,98966.13
2023-09-05T20:36:06.346Z,98961.50
2023-09-05T20:38:36.815Z,98969.31
2023-09-05T20:41:04.708Z,98969.19
2023-09-05T20:43:34.546Z,98969.41
2023-09-05T20:46:02.540Z,98966.00
2023-09-05T20:48:30.903Z,98962.28
2023-09-05T20:50:59.086Z,98963.41
2023-09-05T20:53:28.409Z,98961.28
2023-09-05T20:55:56.065Z,98969.38
2023-09-05T20:58:24.004Z,98965.03
2023-09-05T21:00:52.891Z,98966.69
2023-09-05T21:03:21.185Z,98956.66
2023-09-05T21:05:50.423Z,98961.63
2023-09-05T21:08:23.380Z,98963.72
2023-09-05T21:10:53.446Z,98969.41
2023-09-05T21:13:21.470Z,98967.28
2023-09-05T21:15:55.913Z,98970.41
2023-09-05T21:18:24.246Z,98970.81
2023-09-05T21:20:52.387Z,98966.38
2023-09-05T21:23:20.313Z,98970.88
2023-09-05T21:25:48.260Z,98972.06
2023-09-05T21:28:17.602Z,98977.72
2023-09-05T21:30:45.606Z,98983.06
2023-09-05T21:33:13.554Z,98993.34
2023-09-05T21:35:43.539Z,98990.84
2023-09-05T21:38:11.665Z,98985.03
2023-09-05T21:40:39.647Z,98981.16
2023-09-05T21:43:08.331Z,98980.06
2023-09-05T21:45:40.772Z,98982.34
2023-09-05T21:48:10.877Z,98974.50
2023-09-05T21:50:39.731Z,98971.47
2023-09-05T21:53:07.795Z,98965.47
2023-09-05T21:55:35.882Z,98959.31
2023-09-05T21:58:03.783Z,98954.63
2023-09-05T22:00:33.120Z,98966.31
2023-09-05T22:03:04.188Z,98969.16
2023-09-05T22:05:32.603Z,98970.53
2023-09-05T22:08:00.543Z,98968.84
2023-09-05T22:10:28.922Z,98969.72
2023-09-05T22:12:59.257Z,98977.13
2023-09-05T22:15:27.225Z,98974.03
2023-09-05T22:17:58.338Z,98979.84
2023-09-05T22:22:57.973Z,98962.03
2023-09-05T22:25:28.186Z,98973.00
2023-09-05T22:27:56.543Z,98969.31
2023-09-05T22:30:24.764Z,98967.41
2023-09-05T22:32:53.001Z,98974.16
2023-09-05T22:35:20.991Z,98968.91
2023-09-05T22:37:50.253Z,98962.38
2023-09-05T22:40:19.050Z,98969.59
2023-09-05T22:42:48.191Z,98970.50
2023-09-05T22:45:16.954Z,98963.34
2023-09-05T22:47:46.383Z,98963.78
2023-09-05T22:50:14.378Z,98966.97
2023-09-05T22:52:43.195Z,98963.13
2023-09-05T22:55:13.718Z,98968.19
2023-09-05T22:57:43.634Z,98971.91
2023-09-05T23:00:15.538Z,98975.13
2023-09-05T23:02:44.763Z,98977.53
2023-09-05T23:05:13.910Z,98979.00
2023-09-05T23:07:42.795Z,98975.72
2023-09-05T23:10:12.959Z,98978.69
2023-09-05T23:12:41.551Z,98984.28
2023-09-05T23:15:10.174Z,98974.97
2023-09-05T23:17:38.311Z,98981.41
2023-09-05T23:20:09.607Z,98976.06
2023-09-05T23:22:37.622Z,98974.72
2023-09-05T23:25:08.995Z,98973.75
2023-09-05T23:27:38.637Z,98975.28
2023-09-05T23:30:08.844Z,98985.44
2023-09-05T23:32:38.533Z,98992.28
2023-09-05T23:35:07.701Z,98984.44
2023-09-05T23:37:35.694Z,98981.53
2023-09-05T23:40:13.364Z,98979.19
2023-09-05T23:42:43.450Z,98977.91
2023-09-05T23:45:16.146Z,98976.91
2023-09-05T23:47:48.394Z,98975.41
2023-09-05T23:50:17.095Z,98976.03
2023-09-05T23:52:45.077Z,98968.81
2023-09-05T23:55:13.118Z,98979.78
2023-09-05T23:57:42.584Z,98976.53
